createdAt,value
2023-04-02T00:00:36.201Z,99.99
2023-04-02T00:01:36.155Z,99.99
2023-04-02T00:02:36.210Z,99.99
2023-04-02T00:03:36.236Z,99.98
2023-04-02T00:04:36.095Z,99.46
2023-04-02T00:05:36.405Z,98.73
2023-04-02T00:06:36.223Z,98.73
2023-04-02T00:07:36.076Z,98.32
2023-04-02T00:08:36.044Z,97.38
2023-04-02T00:09:36.077Z,97.80
2023-04-02T00:10:36.043Z,97.90
2023-04-02T00:11:36.029Z,98.11
2023-04-02T00:12:36.038Z,97.43
2023-04-02T00:13:36.105Z,97.53
2023-04-02T00:14:35.954Z,97.64
2023-04-02T00:15:36.343Z,98.05
2023-04-02T00:16:35.971Z,97.53
2023-04-02T00:17:35.970Z,96.91
2023-04-02T00:18:35.968Z,96.39
2023-04-02T00:19:35.929Z,96.70
2023-04-02T00:20:35.900Z,96.91
2023-04-02T00:21:36.359Z,97.22
2023-04-02T00:22:35.863Z,97.12
2023-04-02T00:23:35.897Z,97.53
2023-04-02T00:24:35.968Z,96.91
2023-04-02T00:25:36.098Z,97.33
2023-04-02T00:26:35.809Z,97.64
2023-04-02T00:27:35.835Z,97.33
2023-04-02T00:28:35.775Z,97.43
2023-04-02T00:29:35.824Z,97.06
2023-04-02T00:30:35.810Z,96.75
2023-04-02T00:31:35.805Z,96.64
2023-04-02T00:32:35.809Z,96.64
2023-04-02T00:33:35.755Z,97.27
2023-04-02T00:34:35.696Z,97.68
2023-04-02T00:35:35.990Z,98.10
2023-04-02T00:36:35.801Z,96.44
2023-04-02T00:37:35.700Z,96.33
2023-04-02T00:38:35.684Z,95.81
2023-04-02T00:39:35.670Z,95.61
2023-04-02T00:40:35.644Z,96.23
2023-04-02T00:41:35.664Z,96.33
2023-04-02T00:42:35.709Z,96.23
2023-04-02T00:43:35.636Z,95.81
2023-04-02T00:44:35.556Z,95.96
2023-04-02T00:45:35.988Z,96.06
2023-04-02T00:46:35.569Z,96.37
2023-04-02T00:47:35.592Z,96.06
2023-04-02T00:48:35.580Z,95.86
2023-04-02T00:49:35.553Z,95.65
2023-04-02T00:50:35.492Z,95.03
2023-04-02T00:51:35.551Z,95.86
2023-04-02T00:52:35.491Z,96.48
2023-04-02T00:53:35.521Z,96.17
2023-04-02T00:54:35.520Z,96.37
2023-04-02T00:55:35.723Z,96.58
2023-04-02T00:56:35.420Z,96.27
2023-04-02T00:57:35.463Z,96.17
2023-04-02T00:58:35.470Z,95.86
2023-04-02T00:59:35.430Z,96.17
2023-04-02T01:00:35.439Z,96.27
2023-04-02T01:01:35.393Z,96.06
2023-04-02T01:02:35.445Z,95.65
2023-04-02T01:03:35.894Z,95.86
2023-04-02T01:04:35.318Z,95.75
2023-04-02T01:05:35.743Z,96.06
2023-04-02T01:06:35.348Z,95.86
2023-04-02T01:07:35.290Z,96.27
2023-04-02T01:08:35.269Z,96.48
2023-04-02T01:09:35.272Z,96.79
2023-04-02T01:10:35.204Z,96.69
2023-04-02T01:11:35.269Z,96.69
2023-04-02T01:12:35.321Z,97.10
2023-04-02T01:13:35.219Z,97.31
2023-04-02T01:14:35.176Z,97.00
2023-04-02T01:15:35.327Z,97.31
2023-04-02T01:16:35.132Z,97.41
2023-04-02T01:17:35.228Z,97.31
2023-04-02T01:18:35.159Z,96.89
2023-04-02T01:19:36.092Z,96.79
2023-04-02T01:20:35.102Z,97.31
2023-04-02T01:21:35.087Z,97.20
2023-04-02T01:22:35.078Z,96.48
2023-04-02T01:23:35.090Z,96.58
2023-04-02T01:24:35.079Z,96.89
2023-04-02T01:25:35.222Z,97.41
2023-04-02T01:26:35.019Z,97.41
2023-04-02T01:27:35.006Z,97.14
2023-04-02T01:28:34.970Z,96.52
2023-04-02T01:29:35.005Z,96.83
2023-04-02T01:30:35.082Z,97.25
2023-04-02T01:31:34.994Z,97.56
2023-04-02T01:32:34.961Z,97.14
2023-04-02T01:33:34.941Z,96.94
2023-04-02T01:34:34.918Z,96.62
2023-04-02T01:35:35.064Z,97.14
2023-04-02T01:36:34.975Z,97.77
2023-04-02T01:37:34.930Z,97.88
2023-04-02T01:38:34.874Z,98.08
2023-04-02T01:39:34.854Z,98.08
2023-04-02T01:40:34.861Z,98.19
2023-04-02T01:41:34.822Z,98.08
2023-04-02T01:42:34.815Z,98.19
2023-04-02T01:43:34.841Z,98.29
2023-04-02T01:44:34.757Z,98.50
2023-04-02T01:45:35.159Z,98.19
2023-04-02T01:46:34.791Z,98.08
2023-04-02T01:47:34.752Z,97.67
2023-04-02T01:48:34.770Z,97.88
2023-04-02T01:49:34.706Z,98.19
2023-04-02T01:50:34.694Z,98.39
2023-04-02T01:51:34.719Z,98.39
2023-04-02T01:52:34.645Z,98.39
2023-04-02T01:53:34.709Z,98.08
2023-04-02T01:54:34.685Z,98.29
2023-04-02T01:55:34.864Z,97.98
2023-04-02T01:56:34.639Z,97.92
2023-04-02T01:57:34.626Z,97.61
2023-04-02T01:58:34.566Z,97.50
2023-04-02T01:59:34.623Z,97.61
2023-04-02T02:00:34.690Z,98.13
2023-04-02T02:01:34.560Z,98.33
2023-04-02T02:02:34.627Z,98.13
2023-04-02T02:03:34.582Z,98.13
2023-04-02T02:04:34.489Z,97.92
2023-04-02T02:05:34.699Z,97.71
2023-04-02T02:06:34.632Z,97.50
2023-04-02T02:07:34.476Z,97.19
2023-04-02T02:08:34.584Z,97.30
2023-04-02T02:09:34.458Z,97.50
2023-04-02T02:10:34.429Z,97.61
2023-04-02T02:11:34.470Z,97.71
2023-04-02T02:12:34.423Z,97.61
2023-04-02T02:13:34.424Z,97.09
2023-04-02T02:14:34.387Z,96.57
2023-04-02T02:15:34.661Z,96.88
2023-04-02T02:16:34.367Z,97.09
2023-04-02T02:17:34.458Z,97.03
2023-04-02T02:18:34.448Z,96.82
2023-04-02T02:19:34.347Z,96.61
2023-04-02T02:20:34.306Z,96.72
2023-04-02T02:21:34.287Z,96.20
2023-04-02T02:22:34.278Z,96.61
2023-04-02T02:23:34.293Z,96.20
2023-04-02T02:24:34.264Z,95.67
2023-04-02T02:25:34.531Z,96.20
2023-04-02T02:26:34.221Z,96.09
2023-04-02T02:27:34.210Z,96.41
2023-04-02T02:28:34.199Z,96.72
2023-04-02T02:29:34.177Z,96.82
2023-04-02T02:30:34.165Z,96.61
2023-04-02T02:31:34.233Z,95.99
2023-04-02T02:32:34.168Z,95.47
2023-04-02T02:33:34.160Z,95.47
2023-04-02T02:34:34.091Z,95.05
2023-04-02T02:35:34.526Z,95.30
2023-04-02T02:36:34.118Z,95.15
2023-04-02T02:37:34.105Z,95.09
2023-04-02T02:38:34.059Z,94.99
2023-04-02T02:39:34.080Z,94.99
2023-04-02T02:40:34.033Z,95.20
2023-04-02T02:41:34.026Z,95.30
2023-04-02T02:42:34.121Z,95.09
2023-04-02T02:43:34.035Z,95.51
2023-04-02T02:44:33.954Z,95.83
2023-04-02T02:45:34.343Z,95.83
2023-04-02T02:46:33.956Z,95.93
2023-04-02T02:47:33.971Z,96.14
2023-04-02T02:48:33.986Z,95.83
2023-04-02T02:49:33.888Z,95.62
2023-04-02T02:50:33.910Z,95.51
2023-04-02T02:51:33.882Z,95.51
2023-04-02T02:52:33.862Z,95.30
2023-04-02T02:53:33.879Z,95.20
2023-04-02T02:54:34.006Z,94.99
2023-04-02T02:55:33.984Z,95.62
2023-04-02T02:56:33.867Z,95.30
2023-04-02T02:57:33.816Z,95.51
2023-04-02T02:58:33.785Z,95.30
2023-04-02T02:59:33.821Z,95.30
2023-04-02T03:00:33.878Z,95.40
2023-04-02T03:01:33.776Z,95.20
2023-04-02T03:02:33.882Z,95.30
2023-04-02T03:03:33.799Z,95.40
2023-04-02T03:04:33.712Z,95.30
2023-04-02T03:05:33.944Z,95.40
2023-04-02T03:06:33.752Z,95.25
2023-04-02T03:07:33.660Z,95.14
2023-04-02T03:08:33.698Z,95.14
2023-04-02T03:09:33.618Z,95.14
2023-04-02T03:10:33.630Z,95.35
2023-04-02T03:11:33.620Z,94.93
2023-04-02T03:12:33.739Z,94.82
2023-04-02T03:13:33.598Z,95.03
2023-04-02T03:14:33.603Z,95.03
2023-04-02T03:15:34.031Z,95.45
2023-04-02T03:16:33.581Z,95.45
2023-04-02T03:17:33.520Z,95.03
2023-04-02T03:18:33.631Z,94.82
2023-04-02T03:19:33.536Z,94.51
2023-04-02T03:20:33.530Z,95.03
2023-04-02T03:21:33.453Z,94.93
2023-04-02T03:22:33.495Z,94.62
2023-04-02T03:23:33.458Z,94.51
2023-04-02T03:24:33.563Z,94.51
2023-04-02T03:25:33.621Z,94.82
2023-04-02T03:26:33.463Z,94.72
2023-04-02T03:27:33.385Z,93.99
2023-04-02T03:28:33.432Z,93.99
2023-04-02T03:29:33.354Z,94.51
2023-04-02T03:30:33.406Z,94.51
2023-04-02T03:31:33.400Z,94.41
2023-04-02T03:32:33.365Z,94.62
2023-04-02T03:33:33.324Z,94.82
2023-04-02T03:34:33.346Z,94.82
2023-04-02T03:35:33.590Z,95.25
2023-04-02T03:36:33.329Z,94.82
2023-04-02T03:37:33.277Z,94.82
2023-04-02T03:38:33.301Z,94.41
2023-04-02T03:39:33.227Z,94.10
2023-04-02T03:40:33.266Z,93.99
2023-04-02T03:41:33.236Z,94.10
2023-04-02T03:42:33.265Z,94.62
2023-04-02T03:43:33.194Z,94.72
2023-04-02T03:44:33.208Z,94.82
2023-04-02T03:45:33.339Z,94.72
2023-04-02T03:46:33.243Z,94.20
2023-04-02T03:47:33.179Z,94.51
2023-04-02T03:48:33.184Z,94.41
2023-04-02T03:49:33.100Z,94.31
2023-04-02T03:50:33.120Z,94.31
2023-04-02T03:51:33.092Z,94.41
2023-04-02T03:52:33.082Z,94.82
2023-04-02T03:53:33.063Z,94.41
2023-04-02T03:54:33.150Z,94.72
2023-04-02T03:55:33.289Z,94.93
2023-04-02T03:56:33.058Z,94.62
2023-04-02T03:57:33.036Z,94.51
2023-04-02T03:58:33.956Z,94.93
2023-04-02T03:59:32.988Z,94.62
2023-04-02T04:00:33.013Z,94.41
2023-04-02T04:01:33.062Z,94.82
2023-04-02T04:02:32.989Z,94.82
2023-04-02T04:03:32.947Z,94.72
2023-04-02T04:04:33.058Z,94.20
2023-04-02T04:05:33.055Z,94.20
2023-04-02T04:06:32.941Z,94.41
2023-04-02T04:07:32.914Z,95.14
2023-04-02T04:08:32.904Z,95.03
2023-04-02T04:09:32.839Z,94.72
2023-04-02T04:10:32.856Z,94.62
2023-04-02T04:11:32.817Z,93.89
2023-04-02T04:12:32.840Z,93.58
2023-04-02T04:13:32.816Z,93.58
2023-04-02T04:14:32.819Z,94.20
2023-04-02T04:15:32.908Z,94.41
2023-04-02T04:16:32.818Z,94.10
2023-04-02T04:17:32.757Z,93.99
2023-04-02T04:18:32.860Z,93.79
2023-04-02T04:19:32.720Z,93.89
2023-04-02T04:20:32.701Z,93.68
2023-04-02T04:21:32.694Z,93.37
2023-04-02T04:22:32.742Z,93.37
2023-04-02T04:23:32.653Z,93.58
2023-04-02T04:24:32.690Z,93.58
2023-04-02T04:25:32.633Z,93.89
2023-04-02T04:26:32.658Z,93.89
2023-04-02T04:27:32.588Z,93.37
2023-04-02T04:28:32.641Z,93.48
2023-04-02T04:29:32.582Z,93.37
2023-04-02T04:30:32.607Z,93.27
2023-04-02T04:31:32.579Z,92.74
2023-04-02T04:32:32.627Z,93.16
2023-04-02T04:33:32.532Z,93.48
2023-04-02T04:34:32.550Z,93.37
2023-04-02T04:35:32.546Z,93.37
2023-04-02T04:36:32.568Z,93.16
2023-04-02T04:37:32.453Z,92.74
2023-04-02T04:38:32.464Z,93.27
2023-04-02T04:39:32.458Z,92.43
2023-04-02T04:40:32.481Z,92.22
2023-04-02T04:41:32.399Z,92.12
2023-04-02T04:42:32.458Z,92.12
2023-04-02T04:43:32.404Z,91.71
2023-04-02T04:44:32.389Z,91.71
2023-04-02T04:45:32.606Z,92.22
2023-04-02T04:46:32.432Z,91.91
2023-04-02T04:47:32.349Z,92.22
2023-04-02T04:49:32.329Z,91.60
2023-04-02T04:50:32.314Z,91.91
2023-04-02T04:51:32.291Z,91.81
2023-04-02T04:52:32.307Z,92.22
2023-04-02T04:53:32.283Z,91.39
2023-04-02T04:54:32.328Z,91.81
2023-04-02T04:55:32.232Z,92.22
2023-04-02T04:56:32.271Z,92.02
2023-04-02T04:57:32.204Z,92.12
2023-04-02T04:58:32.231Z,92.33
2023-04-02T04:59:32.226Z,92.74
2023-04-02T05:00:32.206Z,92.02
2023-04-02T05:01:32.180Z,91.39
2023-04-02T05:02:32.247Z,91.28
2023-04-02T05:03:32.127Z,91.39
2023-04-02T05:04:32.219Z,91.50
2023-04-02T05:05:32.142Z,91.28
2023-04-02T05:06:32.212Z,91.08
2023-04-02T05:07:32.099Z,91.28
2023-04-02T05:08:32.069Z,91.18
2023-04-02T05:09:32.065Z,90.97
2023-04-02T05:10:32.097Z,90.87
2023-04-02T05:11:32.007Z,90.25
2023-04-02T05:12:32.136Z,90.56
2023-04-02T05:13:32.002Z,91.08
2023-04-02T05:14:32.018Z,91.08
2023-04-02T05:15:32.012Z,90.35
2023-04-02T05:16:32.113Z,90.66
2023-04-02T05:17:31.963Z,90.35
2023-04-02T05:18:32.059Z,89.62
2023-04-02T05:19:31.922Z,89.94
2023-04-02T05:20:31.918Z,90.31
2023-04-02T05:21:31.898Z,90.72
2023-04-02T05:22:31.912Z,90.93
2023-04-02T05:23:31.853Z,90.93
2023-04-02T05:24:32.012Z,89.06
2023-04-02T05:25:31.822Z,88.64
2023-04-02T05:26:31.845Z,89.27
2023-04-02T05:27:31.839Z,89.58
2023-04-02T05:28:31.837Z,89.58
2023-04-02T05:29:31.771Z,90.41
2023-04-02T05:30:31.831Z,91.25
2023-04-02T05:31:31.802Z,91.87
2023-04-02T05:32:31.805Z,91.97
2023-04-02T05:33:31.740Z,91.14
2023-04-02T05:34:31.756Z,90.52
2023-04-02T05:35:31.716Z,90.20
2023-04-02T05:36:31.804Z,90.52
2023-04-02T05:37:31.662Z,90.31
2023-04-02T05:38:31.677Z,90.10
2023-04-02T05:39:31.662Z,90.72
2023-04-02T05:40:31.656Z,91.14
2023-04-02T05:41:31.661Z,89.48
2023-04-02T05:42:31.700Z,90.10
2023-04-02T05:43:31.588Z,90.41
2023-04-02T05:44:31.619Z,91.14
2023-04-02T05:45:31.592Z,91.04
2023-04-02T05:46:31.619Z,90.31
2023-04-02T05:47:31.619Z,89.37
2023-04-02T05:48:31.686Z,88.85
2023-04-02T05:49:31.521Z,88.12
2023-04-02T05:50:31.536Z,88.54
2023-04-02T05:51:31.524Z,89.33
2023-04-02T05:52:31.502Z,88.60
2023-04-02T05:53:31.489Z,89.23
2023-04-02T05:54:31.523Z,89.02
2023-04-02T05:55:31.429Z,89.02
2023-04-02T05:56:31.473Z,89.64
2023-04-02T05:57:42.110Z,89.75
2023-04-02T05:58:36.213Z,88.60
2023-04-02T05:59:31.405Z,89.75
2023-04-02T06:00:31.460Z,88.92
2023-04-02T06:01:31.396Z,88.40
2023-04-02T06:02:31.557Z,88.81
2023-04-02T06:03:31.374Z,89.23
2023-04-02T06:04:31.387Z,88.50
2023-04-02T06:05:31.294Z,88.92
2023-04-02T06:06:31.421Z,89.02
2023-04-02T06:07:31.289Z,89.33
2023-04-02T06:08:31.313Z,88.40
2023-04-02T06:09:31.267Z,88.40
2023-04-02T06:10:31.284Z,88.71
2023-04-02T06:11:31.225Z,88.60
2023-04-02T06:12:31.285Z,88.29
2023-04-02T06:13:31.215Z,89.12
2023-04-02T06:14:31.212Z,88.71
2023-04-02T06:15:31.190Z,87.77
2023-04-02T06:16:31.227Z,88.09
2023-04-02T06:17:31.160Z,87.88
2023-04-02T06:18:31.214Z,86.94
2023-04-02T06:19:31.134Z,88.67
2023-04-02T06:20:31.119Z,88.87
2023-04-02T06:21:31.126Z,87.73
2023-04-02T06:22:31.130Z,86.07
2023-04-02T06:23:31.272Z,85.49
2023-04-02T06:24:31.110Z,86.59
2023-04-02T06:25:31.031Z,85.44
2023-04-02T06:26:31.042Z,86.49
2023-04-02T06:27:31.015Z,87.73
2023-04-02T06:28:31.029Z,88.25
2023-04-02T06:29:31.010Z,87.73
2023-04-02T06:30:31.057Z,86.90
2023-04-02T06:31:30.969Z,86.17
2023-04-02T06:32:30.974Z,86.38
2023-04-02T06:33:30.945Z,84.82
2023-04-02T06:34:30.983Z,86.49
2023-04-02T06:35:30.903Z,87.73
2023-04-02T06:36:31.056Z,86.90
2023-04-02T06:37:30.869Z,87.32
2023-04-02T06:38:30.913Z,86.17
2023-04-02T06:39:30.877Z,86.07
2023-04-02T06:40:30.855Z,86.59
2023-04-02T06:41:30.838Z,87.11
2023-04-02T06:42:30.893Z,87.48
2023-04-02T06:43:30.800Z,86.96
2023-04-02T06:44:30.834Z,86.76
2023-04-02T06:45:30.784Z,86.55
2023-04-02T06:46:30.898Z,85.82
2023-04-02T06:47:30.779Z,86.55
2023-04-02T06:48:30.817Z,86.86
2023-04-02T06:49:30.705Z,86.44
2023-04-02T06:50:30.724Z,85.10
2023-04-02T06:51:30.702Z,83.74
2023-04-02T06:52:30.706Z,84.99
2023-04-02T06:53:30.716Z,86.03
2023-04-02T06:54:30.806Z,86.03
2023-04-02T06:55:30.665Z,85.82
2023-04-02T06:56:30.705Z,85.72
2023-04-02T06:57:30.684Z,85.20
2023-04-02T06:58:30.607Z,85.10
2023-04-02T06:59:30.630Z,84.58
2023-04-02T07:00:30.620Z,84.99
2023-04-02T07:01:30.647Z,85.72
2023-04-02T07:02:30.604Z,86.03
2023-04-02T07:03:30.524Z,84.89
2023-04-02T07:04:30.519Z,85.47
2023-04-02T07:05:30.583Z,84.47
2023-04-02T07:06:30.622Z,82.91
2023-04-02T07:07:30.498Z,85.05
2023-04-02T07:08:30.481Z,85.26
2023-04-02T07:09:30.464Z,86.09
2023-04-02T07:10:30.447Z,84.95
2023-04-02T07:11:30.456Z,85.05
2023-04-02T07:12:30.440Z,84.64
2023-04-02T07:13:30.435Z,84.43
2023-04-02T07:14:30.390Z,84.12
2023-04-02T07:15:30.381Z,84.53
2023-04-02T07:16:30.417Z,85.47
2023-04-02T07:17:30.404Z,85.26
2023-04-02T07:18:30.350Z,85.47
2023-04-02T07:19:30.350Z,84.12
2023-04-02T07:20:30.349Z,84.60
2023-04-02T07:21:30.301Z,84.08
2023-04-02T07:22:30.268Z,84.29
2023-04-02T07:23:30.289Z,83.98
2023-04-02T07:24:30.344Z,83.04
2023-04-02T07:25:30.283Z,82.73
2023-04-02T07:26:30.229Z,81.80
2023-04-02T07:27:30.215Z,82.84
2023-04-02T07:28:30.231Z,82.84
2023-04-02T07:29:30.197Z,83.36
2023-04-02T07:30:30.188Z,82.11
2023-04-02T07:31:30.219Z,82.01
2023-04-02T07:32:30.142Z,83.04
2023-04-02T07:33:30.193Z,82.01
2023-04-02T07:34:30.122Z,82.53
2023-04-02T07:35:30.118Z,82.63
2023-04-02T07:36:30.106Z,82.53
2023-04-02T07:37:30.150Z,82.01
2023-04-02T07:38:30.071Z,80.55
2023-04-02T07:39:30.058Z,81.80
2023-04-02T07:40:30.045Z,80.97
2023-04-02T07:41:31.031Z,82.39
2023-04-02T07:42:30.107Z,82.90
2023-04-02T07:43:30.068Z,81.97
2023-04-02T07:44:29.969Z,81.62
2023-04-02T07:45:30.009Z,82.14
2023-04-02T07:46:30.013Z,81.51
2023-04-02T07:47:29.982Z,81.30
2023-04-02T07:48:30.008Z,81.51
2023-04-02T07:49:29.965Z,81.30
2023-04-02T07:50:29.882Z,80.06
2023-04-02T07:51:29.926Z,80.16
2023-04-02T07:52:29.888Z,80.58
2023-04-02T07:53:30.146Z,78.41
2023-04-02T07:54:29.858Z,79.96
2023-04-02T07:55:29.867Z,80.16
2023-04-02T07:56:29.805Z,82.10
2023-04-02T07:57:29.939Z,82.31
2023-04-02T07:58:29.849Z,80.33
2023-04-02T07:59:29.814Z,81.02
2023-04-02T08:00:29.820Z,82.48
2023-04-02T08:01:29.777Z,81.23
2023-04-02T08:02:29.765Z,80.30
2023-04-02T08:03:29.864Z,79.99
2023-04-02T08:04:29.706Z,81.40
2023-04-02T08:05:29.756Z,80.88
2023-04-02T08:06:29.823Z,78.33
2023-04-02T08:07:29.696Z,79.44
2023-04-02T08:08:29.674Z,81.71
2023-04-02T08:09:29.660Z,79.74
2023-04-02T08:10:29.657Z,79.02
2023-04-02T08:11:31.670Z,78.81
2023-04-02T08:12:29.626Z,79.44
2023-04-02T08:13:29.696Z,79.74
2023-04-02T08:14:29.622Z,79.85
2023-04-02T08:15:29.587Z,78.50
2023-04-02T08:16:29.582Z,80.47
2023-04-02T08:17:29.637Z,78.71
2023-04-02T08:18:29.563Z,77.98
2023-04-02T08:19:29.562Z,79.33
2023-04-02T08:20:29.518Z,79.50
2023-04-02T08:21:29.527Z,78.78
2023-04-02T08:22:29.491Z,78.88
2023-04-02T08:23:29.488Z,77.57
2023-04-02T08:24:29.474Z,77.36
2023-04-02T08:25:29.479Z,78.09
2023-04-02T08:26:29.454Z,78.88
2023-04-02T08:27:29.422Z,76.64
2023-04-02T08:28:29.422Z,76.64
2023-04-02T08:29:29.420Z,77.15
2023-04-02T08:30:29.424Z,75.92
2023-04-02T08:31:29.440Z,77.05
2023-04-02T08:32:29.409Z,78.05
2023-04-02T08:33:29.376Z,80.19
2023-04-02T08:34:29.335Z,76.88
2023-04-02T08:35:29.348Z,75.12
2023-04-02T08:36:29.391Z,76.57
2023-04-02T08:37:29.295Z,78.43
2023-04-02T08:38:29.253Z,79.63
2023-04-02T08:39:29.319Z,78.50
2023-04-02T08:40:29.255Z,78.81
2023-04-02T08:41:29.238Z,77.05
2023-04-02T08:42:29.237Z,76.84
2023-04-02T08:43:29.248Z,78.19
2023-04-02T08:44:29.187Z,78.67
2023-04-02T08:45:29.237Z,77.53
2023-04-02T08:46:29.222Z,76.39
2023-04-02T08:47:29.210Z,77.50
2023-04-02T08:48:29.178Z,77.50
2023-04-02T08:49:29.155Z,76.84
2023-04-02T08:50:29.094Z,75.91
2023-04-02T08:51:29.125Z,76.84
2023-04-02T08:52:29.073Z,77.46
2023-04-02T08:53:29.146Z,77.67
2023-04-02T08:54:29.133Z,76.94
2023-04-02T08:55:29.082Z,76.87
2023-04-02T08:56:29.076Z,76.77
2023-04-02T08:57:29.191Z,76.87
2023-04-02T08:58:29.106Z,77.50
2023-04-02T08:59:29.086Z,77.98
2023-04-02T09:00:29.130Z,78.08
2023-04-02T09:01:28.993Z,78.08
2023-04-02T09:02:28.989Z,77.04
2023-04-02T09:03:28.966Z,76.12
2023-04-02T09:04:28.925Z,77.25
2023-04-02T09:05:28.968Z,76.22
2023-04-02T09:06:28.933Z,75.19
2023-04-02T09:07:29.850Z,74.81
2023-04-02T09:08:28.889Z,74.71
2023-04-02T09:09:28.881Z,76.56
2023-04-02T09:10:28.842Z,76.09
2023-04-02T09:11:28.846Z,76.67
2023-04-02T09:12:28.907Z,78.28
2023-04-02T09:13:28.847Z,75.39
2023-04-02T09:14:29.758Z,76.50
2023-04-02T09:15:28.777Z,75.32
2023-04-02T09:16:28.854Z,72.92
2023-04-02T09:17:31.188Z,67.00
2023-04-02T09:18:29.815Z,66.88
2023-04-02T09:19:28.748Z,61.93
2023-04-02T09:20:28.681Z,61.71
2023-04-02T09:21:28.720Z,66.63
2023-04-02T09:22:28.712Z,64.78
2023-04-02T09:23:28.666Z,66.25
2023-04-02T09:24:28.773Z,67.03
2023-04-02T09:25:28.648Z,67.13
2023-04-02T09:26:28.609Z,66.54
2023-04-02T09:27:28.642Z,66.58
2023-04-02T09:28:28.604Z,68.74
2023-04-02T09:29:28.593Z,71.24
2023-04-02T09:30:28.665Z,71.62
2023-04-02T09:31:28.651Z,71.31
2023-04-02T09:32:28.590Z,70.90
2023-04-02T09:33:28.566Z,69.18
2023-04-02T09:34:28.527Z,71.34
2023-04-02T09:35:28.510Z,72.88
2023-04-02T09:36:28.695Z,71.75
2023-04-02T09:37:28.492Z,71.75
2023-04-02T09:38:28.479Z,73.81
2023-04-02T09:39:28.501Z,71.86
2023-04-02T09:40:28.422Z,71.99
2023-04-02T09:41:28.454Z,73.13
2023-04-02T09:42:28.442Z,72.09
2023-04-02T09:43:28.427Z,71.51
2023-04-02T09:44:28.378Z,71.13
2023-04-02T09:45:28.428Z,73.50
2023-04-02T09:46:28.385Z,74.22
2023-04-02T09:47:28.406Z,73.57
2023-04-02T09:48:28.459Z,73.95
2023-04-02T09:49:28.328Z,72.61
2023-04-02T09:50:28.291Z,71.72
2023-04-02T09:51:28.352Z,71.41
2023-04-02T09:52:28.308Z,71.24
2023-04-02T09:53:28.299Z,71.03
2023-04-02T09:54:28.391Z,68.70
2023-04-02T09:55:28.252Z,70.68
2023-04-02T09:56:28.251Z,74.05
2023-04-02T09:57:28.266Z,73.81
2023-04-02T09:58:28.177Z,69.21
2023-04-02T09:59:28.251Z,68.73
2023-04-02T10:00:32.122Z,70.07
2023-04-02T10:01:28.217Z,70.17
2023-04-02T10:02:28.171Z,71.72
2023-04-02T10:03:28.136Z,71.00
2023-04-02T10:04:28.117Z,72.23
2023-04-02T10:05:40.013Z,72.96
2023-04-02T10:06:29.213Z,73.74
2023-04-02T10:07:28.083Z,72.92
2023-04-02T10:08:28.115Z,72.71
2023-04-02T10:09:28.071Z,71.41
2023-04-02T10:10:28.012Z,72.33
2023-04-02T10:11:36.524Z,72.67
2023-04-02T10:12:29.027Z,72.99
2023-04-02T10:13:28.070Z,73.09
2023-04-02T10:14:27.992Z,72.33
2023-04-02T10:15:27.975Z,72.78
2023-04-02T10:16:28.060Z,72.54
2023-04-02T10:17:27.981Z,72.92
2023-04-02T10:18:27.950Z,71.28
2023-04-02T10:19:27.947Z,69.87
2023-04-02T10:20:28.544Z,70.38
2023-04-02T10:21:27.924Z,72.24
2023-04-02T10:22:27.878Z,70.79
2023-04-02T10:23:27.867Z,71.34
2023-04-02T10:24:27.885Z,71.82
2023-04-02T10:25:27.844Z,71.03
2023-04-02T10:26:27.804Z,72.06
2023-04-02T10:27:27.839Z,72.78
2023-04-02T10:28:27.783Z,71.65
2023-04-02T10:29:27.839Z,71.44
2023-04-02T10:30:27.815Z,70.97
2023-04-02T10:31:27.839Z,71.20
2023-04-02T10:32:27.752Z,71.24
2023-04-02T10:33:27.761Z,71.78
2023-04-02T10:34:27.722Z,71.41
2023-04-02T10:35:27.738Z,71.99
2023-04-02T10:36:27.716Z,70.04
2023-04-02T10:37:27.678Z,69.66
2023-04-02T10:38:27.656Z,70.28
2023-04-02T10:39:27.676Z,70.39
2023-04-02T10:40:27.630Z,66.45
2023-04-02T10:41:27.677Z,66.22
2023-04-02T10:42:27.730Z,62.87
2023-04-02T10:43:27.612Z,64.10
2023-04-02T10:44:27.616Z,63.44
2023-04-02T10:45:27.575Z,61.72
2023-04-02T10:46:27.562Z,57.27
2023-04-02T10:47:27.642Z,55.74
2023-04-02T10:48:27.565Z,59.39
2023-04-02T10:49:27.594Z,58.01
2023-04-02T10:50:27.502Z,56.68
2023-04-02T10:51:27.527Z,54.92
2023-04-02T10:52:27.456Z,58.11
2023-04-02T10:53:27.513Z,58.11
2023-04-02T10:54:27.500Z,55.63
2023-04-02T10:55:27.441Z,56.04
2023-04-02T10:56:28.523Z,53.06
2023-04-02T10:57:27.482Z,53.85
2023-04-02T10:58:27.375Z,53.65
2023-04-02T10:59:27.413Z,54.26
2023-04-02T11:00:27.363Z,56.09
2023-04-02T11:01:27.404Z,54.41
2023-04-02T11:02:27.404Z,55.53
2023-04-02T11:03:27.466Z,56.22
2023-04-02T11:04:27.288Z,55.89
2023-04-02T11:05:27.325Z,53.22
2023-04-02T11:06:28.457Z,53.27
2023-04-02T11:07:27.286Z,52.15
2023-04-02T11:08:27.266Z,51.23
2023-04-02T11:09:27.255Z,56.34
2023-04-02T11:10:27.215Z,53.09
2023-04-02T11:11:27.258Z,54.64
2023-04-02T11:12:27.308Z,56.40
2023-04-02T11:13:27.236Z,55.58
2023-04-02T11:14:27.172Z,55.97
2023-04-02T11:15:27.174Z,57.17
2023-04-02T11:16:27.256Z,56.98
2023-04-02T11:17:27.148Z,56.47
2023-04-02T11:18:27.218Z,55.20
2023-04-02T11:19:27.160Z,53.04
2023-04-02T11:20:27.125Z,53.88
2023-04-02T11:21:27.067Z,50.91
2023-04-02T11:22:27.076Z,49.21
2023-04-02T11:23:27.067Z,50.07
2023-04-02T11:24:27.095Z,52.66
2023-04-02T11:25:27.035Z,51.44
2023-04-02T11:26:27.039Z,52.56
2023-04-02T11:27:27.006Z,52.15
2023-04-02T11:28:27.016Z,53.55
2023-04-02T11:29:26.950Z,52.56
2023-04-02T11:30:27.080Z,53.80
2023-04-02T11:31:27.007Z,54.59
2023-04-02T11:32:26.970Z,51.64
2023-04-02T11:33:36.552Z,52.76
2023-04-02T11:34:27.948Z,51.64
2023-04-02T11:35:26.873Z,53.45
2023-04-02T11:36:27.010Z,51.98
2023-04-02T11:37:26.880Z,51.85
2023-04-02T11:38:26.882Z,48.19
2023-04-02T11:39:26.821Z,51.62
2023-04-02T11:40:26.873Z,51.67
2023-04-02T11:41:26.792Z,50.03
2023-04-02T11:42:26.836Z,48.28
2023-04-02T11:43:26.807Z,46.56
2023-04-02T11:44:26.782Z,47.19
2023-04-02T11:45:26.766Z,50.13
2023-04-02T11:46:26.860Z,51.35
2023-04-02T11:47:26.759Z,51.27
2023-04-02T11:48:26.859Z,50.76
2023-04-02T11:49:26.683Z,50.60
2023-04-02T11:50:26.704Z,51.34
2023-04-02T11:51:26.685Z,51.00
2023-04-02T11:52:26.706Z,53.06
2023-04-02T11:53:26.643Z,57.26
2023-04-02T11:54:26.676Z,53.37
2023-04-02T11:55:26.629Z,55.27
2023-04-02T11:56:26.611Z,51.47
2023-04-02T11:57:26.645Z,50.34
2023-04-02T11:58:26.609Z,50.69
2023-04-02T11:59:26.549Z,46.75
2023-04-02T12:00:26.718Z,49.30
2023-04-02T12:01:26.519Z,50.05
2023-04-02T12:02:26.605Z,49.77
2023-04-02T12:03:26.507Z,52.94
2023-04-02T12:04:26.508Z,53.19
2023-04-02T12:05:26.611Z,54.66
2023-04-02T12:06:26.606Z,55.22
2023-04-02T12:07:26.454Z,55.68
2023-04-02T12:08:26.444Z,58.01
2023-04-02T12:09:26.437Z,56.94
2023-04-02T12:10:26.463Z,58.83
2023-04-02T12:11:26.373Z,59.01
2023-04-02T12:12:26.443Z,58.07
2023-04-02T12:13:26.383Z,58.30
2023-04-02T12:14:26.372Z,61.79
2023-04-02T12:15:26.361Z,61.01
2023-04-02T12:16:26.353Z,62.21
2023-04-02T12:17:26.411Z,59.14
2023-04-02T12:18:26.441Z,63.92
2023-04-02T12:19:26.265Z,63.69
2023-04-02T12:20:26.309Z,59.98
2023-04-02T12:21:26.246Z,62.40
2023-04-02T12:22:26.255Z,61.97
2023-04-02T12:23:26.243Z,63.34
2023-04-02T12:24:26.358Z,58.54
2023-04-02T12:25:26.214Z,55.41
2023-04-02T12:26:26.222Z,56.63
2023-04-02T12:27:26.174Z,57.37
2023-04-02T12:28:26.192Z,61.05
2023-04-02T12:29:26.163Z,58.42
2023-04-02T12:30:26.277Z,59.95
2023-04-02T12:31:26.169Z,61.28
2023-04-02T12:32:27.828Z,60.87
2023-04-02T12:33:26.124Z,58.42
2023-04-02T12:34:26.127Z,58.96
2023-04-02T12:35:26.057Z,59.98
2023-04-02T12:36:26.238Z,60.80
2023-04-02T12:37:26.032Z,61.18
2023-04-02T12:38:26.038Z,55.56
2023-04-02T12:39:28.257Z,56.81
2023-04-02T12:40:26.035Z,61.28
2023-04-02T12:41:25.971Z,59.55
2023-04-02T12:42:26.120Z,59.11
2023-04-02T12:43:26.015Z,61.32
2023-04-02T12:44:25.979Z,59.77
2023-04-02T12:45:27.948Z,59.12
2023-04-02T12:46:25.991Z,58.89
2023-04-02T12:47:25.921Z,60.30
2023-04-02T12:48:25.976Z,56.12
2023-04-02T12:49:25.876Z,58.56
2023-04-02T12:50:25.885Z,54.85
2023-04-02T12:51:28.303Z,58.03
2023-04-02T12:52:25.854Z,57.96
2023-04-02T12:53:25.842Z,59.00